sensor_id;sensor_type;location;lat;lon;timestamp;temperature;humidity
20815;DHT22;10568;48.176;16.316;2023-11-21T00:00:22;7.90;99.90
20815;DHT22;10568;48.176;16.316;2023-11-21T00:02:48;7.80;99.90
20815;DHT22;10568;48.176;16.316;2023-11-21T00:05:14;7.80;99.90
20815;DHT22;10568;48.176;16.316;2023-11-21T00:07:41;7.80;99.90
20815;DHT22;10568;48.176;16.316;2023-11-21T00:10:08;7.80;99.90
20815;DHT22;10568;48.176;16.316;2023-11-21T00:12:37;7.90;99.90
20815;DHT22;10568;48.176;16.316;2023-11-21T00:15:04;7.90;99.90
20815;DHT22;10568;48.176;16.316;2023-11-21T00:17:39;7.80;99.90
20815;DHT22;10568;48.176;16.316;2023-11-21T00:20:08;7.80;99.90
20815;DHT22;10568;48.176;16.316;2023-11-21T00:22:38;7.70;99.90
20815;DHT22;10568;48.176;16.316;2023-11-21T00:25:04;7.60;99.90
20815;DHT22;10568;48.176;16.316;2023-11-21T00:27:30;7.50;99.90
20815;DHT22;10568;48.176;16.316;2023-11-21T00:29:56;7.50;99.90
20815;DHT22;10568;48.176;16.316;2023-11-21T00:32:21;7.40;99.90
20815;DHT22;10568;48.176;16.316;2023-11-21T00:34:47;7.40;99.90
20815;DHT22;10568;48.176;16.316;2023-11-21T00:37:14;7.30;99.90
20815;DHT22;10568;48.176;16.316;2023-11-21T00:39:40;7.20;99.90
20815;DHT22;10568;48.176;16.316;2023-11-21T00:42:06;7.20;99.90
20815;DHT22;10568;48.176;16.316;2023-11-21T00:44:32;7.10;99.90
20815;DHT22;10568;48.176;16.316;2023-11-21T00:46:59;7.10;99.90
20815;DHT22;10568;48.176;16.316;2023-11-21T00:49:25;7.00;99.90
20815;DHT22;10568;48.176;16.316;2023-11-21T00:51:51;7.00;99.90
20815;DHT22;10568;48.176;16.316;2023-11-21T00:54:17;6.90;99.90
20815;DHT22;10568;48.176;16.316;2023-11-21T00:56:43;6.90;99.90
20815;DHT22;10568;48.176;16.316;2023-11-21T00:59:09;6.90;99.90
20815;DHT22;10568;48.176;16.316;2023-11-21T01:01:36;6.80;99.90
20815;DHT22;10568;48.176;16.316;2023-11-21T01:04:03;6.80;99.90
20815;DHT22;10568;48.176;16.316;2023-11-21T01:06:29;6.80;99.90
20815;DHT22;10568;48.176;16.316;2023-11-21T01:08:55;6.70;99.90
20815;DHT22;10568;48.176;16.316;2023-11-21T01:11:21;6.70;99.90
20815;DHT22;10568;48.176;16.316;2023-11-21T01:13:47;6.60;99.90
20815;DHT22;10568;48.176;16.316;2023-11-21T01:16:13;6.60;99.90
20815;DHT22;10568;48.176;16.316;2023-11-21T01:18:38;6.60;99.90
20815;DHT22;10568;48.176;16.316;2023-11-21T01:21:04;6.50;99.90
20815;DHT22;10568;48.176;16.316;2023-11-21T01:23:30;6.50;99.90
20815;DHT22;10568;48.176;16.316;2023-11-21T01:25:57;6.40;99.90
20815;DHT22;10568;48.176;16.316;2023-11-21T01:28:23;6.30;99.90
20815;DHT22;10568;48.176;16.316;2023-11-21T01:30:49;6.30;99.90
20815;DHT22;10568;48.176;16.316;2023-11-21T01:33:15;6.20;99.90
20815;DHT22;10568;48.176;16.316;2023-11-21T01:35:41;6.20;99.90
20815;DHT22;10568;48.176;16.316;2023-11-21T01:38:08;6.10;99.90
20815;DHT22;10568;48.176;16.316;2023-11-21T01:40:34;6.10;99.90
20815;DHT22;10568;48.176;16.316;2023-11-21T01:43:00;6.00;99.90
20815;DHT22;10568;48.176;16.316;2023-11-21T01:45:29;6.00;99.90
20815;DHT22;10568;48.176;16.316;2023-11-21T01:47:57;6.00;99.90
20815;DHT22;10568;48.176;16.316;2023-11-21T01:50:26;6.00;99.90
20815;DHT22;10568;48.176;16.316;2023-11-21T01:52:52;6.10;99.90
20815;DHT22;10568;48.176;16.316;2023-11-21T01:55:19;6.10;99.90
20815;DHT22;10568;48.176;16.316;2023-11-21T01:57:46;6.30;99.90
20815;DHT22;10568;48.176;16.316;2023-11-21T02:00:12;6.40;99.90
20815;DHT22;10568;48.176;16.316;2023-11-21T02:02:44;6.40;99.90
20815;DHT22;10568;48.176;16.316;2023-11-21T02:05:11;6.50;99.90
20815;DHT22;10568;48.176;16.316;2023-11-21T02:07:41;6.50;99.90
20815;DHT22;10568;48.176;16.316;2023-11-21T02:10:09;6.60;99.90
20815;DHT22;10568;48.176;16.316;2023-11-21T02:12:35;6.60;99.90
20815;DHT22;10568;48.176;16.316;2023-11-21T02:15:05;6.50;99.90
20815;DHT22;10568;48.176;16.316;2023-11-21T02:17:36;6.60;99.90
20815;DHT22;10568;48.176;16.316;2023-11-21T02:20:02;6.60;99.90
20815;DHT22;10568;48.176;16.316;2023-11-21T02:22:31;6.50;99.90
20815;DHT22;10568;48.176;16.316;2023-11-21T02:25:01;6.60;99.90
20815;DHT22;10568;48.176;16.316;2023-11-21T02:27:27;6.70;99.90
20815;DHT22;10568;48.176;16.316;2023-11-21T02:29:54;6.60;99.90
20815;DHT22;10568;48.176;16.316;2023-11-21T02:32:20;6.60;99.90
20815;DHT22;10568;48.176;16.316;2023-11-21T02:34:48;6.60;99.90
20815;DHT22;10568;48.176;16.316;2023-11-21T02:37:15;6.60;99.90
20815;DHT22;10568;48.176;16.316;2023-11-21T02:39:41;6.60;99.90
20815;DHT22;10568;48.176;16.316;2023-11-21T02:42:07;6.60;99.90
20815;DHT22;10568;48.176;16.316;2023-11-21T02:44:33;6.60;99.90
20815;DHT22;10568;48.176;16.316;2023-11-21T02:46:59;6.60;99.90
20815;DHT22;10568;48.176;16.316;2023-11-21T02:49:25;6.60;99.90
20815;DHT22;10568;48.176;16.316;2023-11-21T02:51:54;6.60;99.90
20815;DHT22;10568;48.176;16.316;2023-11-21T02:54:22;6.60;99.90
20815;DHT22;10568;48.176;16.316;2023-11-21T02:56:49;6.60;99.90
20815;DHT22;10568;48.176;16.316;2023-11-21T02:59:15;6.50;99.90
20815;DHT22;10568;48.176;16.316;2023-11-21T03:01:41;6.50;99.90
20815;DHT22;10568;48.176;16.316;2023-11-21T03:04:07;6.40;99.90
20815;DHT22;10568;48.176;16.316;2023-11-21T03:06:33;6.40;99.90
20815;DHT22;10568;48.176;16.316;2023-11-21T03:08:59;6.40;99.90
20815;DHT22;10568;48.176;16.316;2023-11-21T03:11:25;6.40;99.90
20815;DHT22;10568;48.176;16.316;2023-11-21T03:13:51;6.30;99.90
20815;DHT22;10568;48.176;16.316;2023-11-21T03:16:18;6.30;99.90
20815;DHT22;10568;48.176;16.316;2023-11-21T03:18:44;6.30;99.90
20815;DHT22;10568;48.176;16.316;2023-11-21T03:21:11;6.40;99.90
20815;DHT22;10568;48.176;16.316;2023-11-21T03:23:37;6.40;99.90
20815;DHT22;10568;48.176;16.316;2023-11-21T03:26:04;6.30;99.90
20815;DHT22;10568;48.176;16.316;2023-11-21T03:28:30;6.30;99.90
20815;DHT22;10568;48.176;16.316;2023-11-21T03:30:55;6.30;99.90
20815;DHT22;10568;48.176;16.316;2023-11-21T03:33:22;6.20;99.90
20815;DHT22;10568;48.176;16.316;2023-11-21T03:35:48;6.20;99.90
20815;DHT22;10568;48.176;16.316;2023-11-21T03:38:15;6.20;99.90
20815;DHT22;10568;48.176;16.316;2023-11-21T03:40:41;6.20;99.90
20815;DHT22;10568;48.176;16.316;2023-11-21T03:43:07;6.20;99.90
20815;DHT22;10568;48.176;16.316;2023-11-21T03:45:33;6.20;99.90
20815;DHT22;10568;48.176;16.316;2023-11-21T03:47:59;6.20;99.90
20815;DHT22;10568;48.176;16.316;2023-11-21T03:50:30;6.20;99.90
20815;DHT22;10568;48.176;16.316;2023-11-21T03:52:57;6.10;99.90
20815;DHT22;10568;48.176;16.316;2023-11-21T03:55:22;6.10;99.90
20815;DHT22;10568;48.176;16.316;2023-11-21T03:57:52;6.00;99.90
20815;DHT22;10568;48.176;16.316;2023-11-21T04:00:18;6.00;99.90
20815;DHT22;10568;48.176;16.316;2023-11-21T04:02:46;6.00;99.90
20815;DHT22;10568;48.176;16.316;2023-11-21T04:05:11;6.00;99.90
20815;DHT22;10568;48.176;16.316;2023-11-21T04:07:37;6.00;99.90
20815;DHT22;10568;48.176;16.316;2023-11-21T04:10:05;6.10;99.90
20815;DHT22;10568;48.176;16.316;2023-11-21T04:12:37;6.10;99.90
20815;DHT22;10568;48.176;16.316;2023-11-21T04:15:03;6.10;99.90
20815;DHT22;10568;48.176;16.316;2023-11-21T04:17:29;6.20;99.90
20815;DHT22;10568;48.176;16.316;2023-11-21T04:19:55;6.10;99.90
20815;DHT22;10568;48.176;16.316;2023-11-21T04:22:21;6.10;99.90
20815;DHT22;10568;48.176;16.316;2023-11-21T04:24:46;6.10;99.90
20815;DHT22;10568;48.176;16.316;2023-11-21T04:27:12;6.10;99.90
20815;DHT22;10568;48.176;16.316;2023-11-21T04:29:40;6.20;99.90
20815;DHT22;10568;48.176;16.316;2023-11-21T04:32:07;6.20;99.90
20815;DHT22;10568;48.176;16.316;2023-11-21T04:34:33;6.20;99.90
20815;DHT22;10568;48.176;16.316;2023-11-21T04:37:00;6.20;99.90
20815;DHT22;10568;48.176;16.316;2023-11-21T04:39:26;6.20;99.90
20815;DHT22;10568;48.176;16.316;2023-11-21T04:41:52;6.10;99.90
20815;DHT22;10568;48.176;16.316;2023-11-21T04:44:18;6.10;99.90
20815;DHT22;10568;48.176;16.316;2023-11-21T04:46:44;6.10;99.90
20815;DHT22;10568;48.176;16.316;2023-11-21T04:49:09;6.10;99.90
20815;DHT22;10568;48.176;16.316;2023-11-21T04:51:36;6.00;99.90
20815;DHT22;10568;48.176;16.316;2023-11-21T04:54:02;6.00;99.90
20815;DHT22;10568;48.176;16.316;2023-11-21T04:56:28;6.00;99.90
20815;DHT22;10568;48.176;16.316;2023-11-21T04:58:54;6.10;99.90
20815;DHT22;10568;48.176;16.316;2023-11-21T05:01:20;6.20;99.90
20815;DHT22;10568;48.176;16.316;2023-11-21T05:03:46;6.30;99.90
20815;DHT22;10568;48.176;16.316;2023-11-21T05:06:13;6.20;99.90
20815;DHT22;10568;48.176;16.316;2023-11-21T05:08:42;6.20;99.90
20815;DHT22;10568;48.176;16.316;2023-11-21T05:11:08;6.20;99.90
20815;DHT22;10568;48.176;16.316;2023-11-21T05:13:36;6.20;99.90
20815;DHT22;10568;48.176;16.316;2023-11-21T05:16:03;6.30;99.90
20815;DHT22;10568;48.176;16.316;2023-11-21T05:18:32;6.30;99.90
20815;DHT22;10568;48.176;16.316;2023-11-21T05:20:59;6.30;99.90
20815;DHT22;10568;48.176;16.316;2023-11-21T05:23:26;6.40;99.90
20815;DHT22;10568;48.176;16.316;2023-11-21T05:25:52;6.40;99.90
20815;DHT22;10568;48.176;16.316;2023-11-21T05:28:18;6.40;99.90
20815;DHT22;10568;48.176;16.316;2023-11-21T05:30:44;6.40;99.90
20815;DHT22;10568;48.176;16.316;2023-11-21T05:33:09;6.40;99.90
20815;DHT22;10568;48.176;16.316;2023-11-21T05:35:35;6.40;99.90
20815;DHT22;10568;48.176;16.316;2023-11-21T05:38:01;6.40;99.90
20815;DHT22;10568;48.176;16.316;2023-11-21T05:40:27;6.30;99.90
20815;DHT22;10568;48.176;16.316;2023-11-21T05:42:55;6.40;99.90
20815;DHT22;10568;48.176;16.316;2023-11-21T05:45:21;6.40;99.90
20815;DHT22;10568;48.176;16.316;2023-11-21T05:47:47;6.40;99.90
20815;DHT22;10568;48.176;16.316;2023-11-21T05:50:15;6.40;99.90
20815;DHT22;10568;48.176;16.316;2023-11-21T05:52:45;6.40;99.90
20815;DHT22;10568;48.176;16.316;2023-11-21T05:55:11;6.40;99.90
20815;DHT22;10568;48.176;16.316;2023-11-21T05:57:38;6.40;99.90
20815;DHT22;10568;48.176;16.316;2023-11-21T06:00:05;6.50;99.90
20815;DHT22;10568;48.176;16.316;2023-11-21T06:02:37;6.50;99.90
20815;DHT22;10568;48.176;16.316;2023-11-21T06:05:04;6.50;99.90
20815;DHT22;10568;48.176;16.316;2023-11-21T06:07:30;6.50;99.90
20815;DHT22;10568;48.176;16.316;2023-11-21T06:09:56;6.50;99.90
20815;DHT22;10568;48.176;16.316;2023-11-21T06:12:22;6.50;99.90
20815;DHT22;10568;48.176;16.316;2023-11-21T06:14:48;6.50;99.90
20815;DHT22;10568;48.176;16.316;2023-11-21T06:17:14;6.40;99.90
20815;DHT22;10568;48.176;16.316;2023-11-21T06:19:40;6.40;99.90
20815;DHT22;10568;48.176;16.316;2023-11-21T06:22:06;6.30;99.90
20815;DHT22;10568;48.176;16.316;2023-11-21T06:24:31;6.40;99.90
20815;DHT22;10568;48.176;16.316;2023-11-21T06:26:57;6.40;99.90
20815;DHT22;10568;48.176;16.316;2023-11-21T06:29:24;6.40;99.90
20815;DHT22;10568;48.176;16.316;2023-11-21T06:31:50;6.50;99.90
20815;DHT22;10568;48.176;16.316;2023-11-21T06:34:15;6.50;99.90
20815;DHT22;10568;48.176;16.316;2023-11-21T06:36:41;6.60;99.90
20815;DHT22;10568;48.176;16.316;2023-11-21T06:39:07;6.70;99.90
20815;DHT22;10568;48.176;16.316;2023-11-21T06:41:35;6.70;99.90
20815;DHT22;10568;48.176;16.316;2023-11-21T06:44:04;6.90;99.90
20815;DHT22;10568;48.176;16.316;2023-11-21T06:46:32;7.10;99.90
20815;DHT22;10568;48.176;16.316;2023-11-21T06:48:57;7.20;99.90
20815;DHT22;10568;48.176;16.316;2023-11-21T06:51:23;7.30;99.90
20815;DHT22;10568;48.176;16.316;2023-11-21T06:53:49;7.30;99.90
20815;DHT22;10568;48.176;16.316;2023-11-21T06:56:16;7.40;99.90
20815;DHT22;10568;48.176;16.316;2023-11-21T06:58:42;7.50;99.90
20815;DHT22;10568;48.176;16.316;2023-11-21T07:01:07;7.50;99.90
20815;DHT22;10568;48.176;16.316;2023-11-21T07:03:33;7.60;99.90
20815;DHT22;10568;48.176;16.316;2023-11-21T07:05:59;7.60;99.90
20815;DHT22;10568;48.176;16.316;2023-11-21T07:08:25;7.60;99.90
20815;DHT22;10568;48.176;16.316;2023-11-21T07:10:50;7.60;99.90
20815;DHT22;10568;48.176;16.316;2023-11-21T07:13:16;7.60;99.90
20815;DHT22;10568;48.176;16.316;2023-11-21T07:15:42;7.60;99.90
20815;DHT22;10568;48.176;16.316;2023-11-21T07:18:09;7.60;99.90
20815;DHT22;10568;48.176;16.316;2023-11-21T07:20:35;7.60;99.90
20815;DHT22;10568;48.176;16.316;2023-11-21T07:23:01;7.60;99.90
20815;DHT22;10568;48.176;16.316;2023-11-21T07:25:26;7.70;99.90
20815;DHT22;10568;48.176;16.316;2023-11-21T07:27:52;7.80;99.90
20815;DHT22;10568;48.176;16.316;2023-11-21T07:30:20;7.90;99.90
20815;DHT22;10568;48.176;16.316;2023-11-21T07:32:48;7.90;99.90
20815;DHT22;10568;48.176;16.316;2023-11-21T07:35:14;8.00;99.90
20815;DHT22;10568;48.176;16.316;2023-11-21T07:37:40;8.10;99.90
20815;DHT22;10568;48.176;16.316;2023-11-21T07:40:06;8.20;99.90
20815;DHT22;10568;48.176;16.316;2023-11-21T07:42:34;8.30;99.90
20815;DHT22;10568;48.176;16.316;2023-11-21T07:45:00;8.50;99.90
20815;DHT22;10568;48.176;16.316;2023-11-21T07:47:26;8.60;99.90
20815;DHT22;10568;48.176;16.316;2023-11-21T07:49:53;8.60;99.90
20815;DHT22;10568;48.176;16.316;2023-11-21T07:52:22;8.70;99.90
20815;DHT22;10568;48.176;16.316;2023-11-21T07:54:47;8.70;99.90
20815;DHT22;10568;48.176;16.316;2023-11-21T07:57:13;8.80;99.90
20815;DHT22;10568;48.176;16.316;2023-11-21T07:59:42;8.80;99.90
20815;DHT22;10568;48.176;16.316;2023-11-21T08:02:08;8.80;99.90
20815;DHT22;10568;48.176;16.316;2023-11-21T08:04:33;8.80;99.90
20815;DHT22;10568;48.176;16.316;2023-11-21T08:07:01;8.80;99.90
20815;DHT22;10568;48.176;16.316;2023-11-21T08:09:27;8.90;99.90
20815;DHT22;10568;48.176;16.316;2023-11-21T08:11:53;9.00;99.90
20815;DHT22;10568;48.176;16.316;2023-11-21T08:14:19;9.10;99.90
20815;DHT22;10568;48.176;16.316;2023-11-21T08:16:45;9.10;99.90
20815;DHT22;10568;48.176;16.316;2023-11-21T08:19:11;9.20;99.90
20815;DHT22;10568;48.176;16.316;2023-11-21T08:21:37;9.30;99.90
20815;DHT22;10568;48.176;16.316;2023-11-21T08:24:06;9.40;99.90
20815;DHT22;10568;48.176;16.316;2023-11-21T08:26:32;9.40;99.90
20815;DHT22;10568;48.176;16.316;2023-11-21T08:28:58;9.50;99.90
20815;DHT22;10568;48.176;16.316;2023-11-21T08:31:26;9.50;99.90
20815;DHT22;10568;48.176;16.316;2023-11-21T08:33:52;9.50;99.90
20815;DHT22;10568;48.176;16.316;2023-11-21T08:36:21;9.60;99.90
20815;DHT22;10568;48.176;16.316;2023-11-21T08:38:50;9.60;99.90
20815;DHT22;10568;48.176;16.316;2023-11-21T08:41:18;9.70;99.90
20815;DHT22;10568;48.176;16.316;2023-11-21T08:43:51;9.80;99.90
20815;DHT22;10568;48.176;16.316;2023-11-21T08:46:17;9.90;99.90
20815;DHT22;10568;48.176;16.316;2023-11-21T08:48:43;10.00;99.90
20815;DHT22;10568;48.176;16.316;2023-11-21T08:51:10;10.10;99.90
20815;DHT22;10568;48.176;16.316;2023-11-21T08:53:37;10.20;99.90
20815;DHT22;10568;48.176;16.316;2023-11-21T08:56:03;10.30;99.90
20815;DHT22;10568;48.176;16.316;2023-11-21T08:58:31;10.40;99.90
20815;DHT22;10568;48.176;16.316;2023-11-21T09:00:58;10.50;99.90
20815;DHT22;10568;48.176;16.316;2023-11-21T09:03:24;10.50;99.90
20815;DHT22;10568;48.176;16.316;2023-11-21T09:05:50;10.60;99.90
20815;DHT22;10568;48.176;16.316;2023-11-21T09:08:16;10.60;99.90
20815;DHT22;10568;48.176;16.316;2023-11-21T09:10:42;10.60;99.90
20815;DHT22;10568;48.176;16.316;2023-11-21T09:13:10;10.50;99.90
20815;DHT22;10568;48.176;16.316;2023-11-21T09:15:39;10.60;99.90
20815;DHT22;10568;48.176;16.316;2023-11-21T09:18:05;10.60;99.90
20815;DHT22;10568;48.176;16.316;2023-11-21T09:20:31;10.60;99.90
20815;DHT22;10568;48.176;16.316;2023-11-21T09:22:57;10.60;99.90
20815;DHT22;10568;48.176;16.316;2023-11-21T09:25:23;10.70;99.90
20815;DHT22;10568;48.176;16.316;2023-11-21T09:27:49;10.70;99.90
20815;DHT22;10568;48.176;16.316;2023-11-21T09:30:15;10.80;99.90
20815;DHT22;10568;48.176;16.316;2023-11-21T09:32:41;10.90;99.90
20815;DHT22;10568;48.176;16.316;2023-11-21T09:35:09;10.90;99.90
20815;DHT22;10568;48.176;16.316;2023-11-21T09:37:35;11.00;99.90
20815;DHT22;10568;48.176;16.316;2023-11-21T09:40:01;11.00;99.90
20815;DHT22;10568;48.176;16.316;2023-11-21T09:42:40;11.10;99.90
20815;DHT22;10568;48.176;16.316;2023-11-21T09:45:28;11.10;99.90
20815;DHT22;10568;48.176;16.316;2023-11-21T09:47:55;11.10;99.90
20815;DHT22;10568;48.176;16.316;2023-11-21T09:50:22;11.10;99.90
20815;DHT22;10568;48.176;16.316;2023-11-21T09:55:44;11.20;99.90
20815;DHT22;10568;48.176;16.316;2023-11-21T09:58:11;11.30;99.90
20815;DHT22;10568;48.176;16.316;2023-11-21T10:00:44;11.40;99.90
20815;DHT22;10568;48.176;16.316;2023-11-21T10:03:11;11.50;99.90
20815;DHT22;10568;48.176;16.316;2023-11-21T10:05:37;11.40;99.90
20815;DHT22;10568;48.176;16.316;2023-11-21T10:08:11;11.50;99.90
20815;DHT22;10568;48.176;16.316;2023-11-21T10:10:42;11.60;99.90
20815;DHT22;10568;48.176;16.316;2023-11-21T10:13:12;11.60;99.90
20815;DHT22;10568;48.176;16.316;2023-11-21T10:15:38;11.70;99.90
20815;DHT22;10568;48.176;16.316;2023-11-21T10:18:05;11.80;99.90
20815;DHT22;10568;48.176;16.316;2023-11-21T10:20:33;11.90;99.90
20815;DHT22;10568;48.176;16.316;2023-11-21T10:23:00;11.80;99.90
20815;DHT22;10568;48.176;16.316;2023-11-21T10:25:32;11.90;99.90
20815;DHT22;10568;48.176;16.316;2023-11-21T10:28:00;11.80;99.90
20815;DHT22;10568;48.176;16.316;2023-11-21T10:30:36;11.80;99.90
20815;DHT22;10568;48.176;16.316;2023-11-21T10:33:06;11.90;99.90
20815;DHT22;10568;48.176;16.316;2023-11-21T10:35:46;11.90;99.90
20815;DHT22;10568;48.176;16.316;2023-11-21T10:38:17;12.20;99.90
20815;DHT22;10568;48.176;16.316;2023-11-21T10:41:01;12.50;99.90
20815;DHT22;10568;48.176;16.316;2023-11-21T10:43:30;12.60;99.90
20815;DHT22;10568;48.176;16.316;2023-11-21T10:45:58;12.60;99.90
20815;DHT22;10568;48.176;16.316;2023-11-21T10:48:28;12.70;99.90
20815;DHT22;10568;48.176;16.316;2023-11-21T10:50:55;12.80;99.90
20815;DHT22;10568;48.176;16.316;2023-11-21T10:53:22;12.70;99.90
20815;DHT22;10568;48.176;16.316;2023-11-21T10:55:49;12.60;99.90
20815;DHT22;10568;48.176;16.316;2023-11-21T10:58:40;12.70;99.90
20815;DHT22;10568;48.176;16.316;2023-11-21T11:01:06;12.70;99.90
20815;DHT22;10568;48.176;16.316;2023-11-21T11:03:36;12.70;99.90
20815;DHT22;10568;48.176;16.316;2023-11-21T11:06:04;12.70;99.90
20815;DHT22;10568;48.176;16.316;2023-11-21T11:08:34;12.60;99.90
20815;DHT22;10568;48.176;16.316;2023-11-21T11:11:01;12.60;99.90
20815;DHT22;10568;48.176;16.316;2023-11-21T11:13:26;12.50;99.90
20815;DHT22;10568;48.176;16.316;2023-11-21T11:15:58;12.40;99.90
20815;DHT22;10568;48.176;16.316;2023-11-21T11:18:29;12.40;99.90
20815;DHT22;10568;48.176;16.316;2023-11-21T11:32:29;12.20;99.90
20815;DHT22;10568;48.176;16.316;2023-11-21T11:35:06;12.20;99.90
20815;DHT22;10568;48.176;16.316;2023-11-21T11:37:34;12.20;99.90
20815;DHT22;10568;48.176;16.316;2023-11-21T11:40:00;12.20;99.90
20815;DHT22;10568;48.176;16.316;2023-11-21T11:42:26;12.10;99.90
20815;DHT22;10568;48.176;16.316;2023-11-21T11:48:17;11.90;99.90
20815;DHT22;10568;48.176;16.316;2023-11-21T11:51:02;12.00;99.90
20815;DHT22;10568;48.176;16.316;2023-11-21T11:53:48;12.00;99.90
20815;DHT22;10568;48.176;16.316;2023-11-21T11:56:43;12.00;99.90
20815;DHT22;10568;48.176;16.316;2023-11-21T11:59:10;12.00;99.90
20815;DHT22;10568;48.176;16.316;2023-11-21T12:01:35;11.90;99.90
20815;DHT22;10568;48.176;16.316;2023-11-21T12:06:41;11.80;99.90
20815;DHT22;10568;48.176;16.316;2023-11-21T12:09:21;11.90;99.90
20815;DHT22;10568;48.176;16.316;2023-11-21T12:11:51;11.80;99.90
20815;DHT22;10568;48.176;16.316;2023-11-21T12:14:17;11.80;99.90
20815;DHT22;10568;48.176;16.316;2023-11-21T12:16:44;11.80;99.90
20815;DHT22;10568;48.176;16.316;2023-11-21T12:19:11;11.80;99.90
20815;DHT22;10568;48.176;16.316;2023-11-21T12:21:37;11.80;99.90
20815;DHT22;10568;48.176;16.316;2023-11-21T12:24:03;11.70;99.90
20815;DHT22;10568;48.176;16.316;2023-11-21T12:26:29;11.70;99.90
20815;DHT22;10568;48.176;16.316;2023-11-21T12:28:55;11.60;99.90
20815;DHT22;10568;48.176;16.316;2023-11-21T12:31:22;11.70;99.90
20815;DHT22;10568;48.176;16.316;2023-11-21T12:33:49;11.70;99.90
20815;DHT22;10568;48.176;16.316;2023-11-21T12:36:16;11.60;99.90
20815;DHT22;10568;48.176;16.316;2023-11-21T12:38:42;11.60;99.90
20815;DHT22;10568;48.176;16.316;2023-11-21T12:41:09;11.60;99.90
20815;DHT22;10568;48.176;16.316;2023-11-21T12:43:38;11.50;99.90
20815;DHT22;10568;48.176;16.316;2023-11-21T12:46:08;11.30;99.90
20815;DHT22;10568;48.176;16.316;2023-11-21T12:48:47;11.30;99.90
20815;DHT22;10568;48.176;16.316;2023-11-21T12:51:13;11.20;99.90
20815;DHT22;10568;48.176;16.316;2023-11-21T12:53:44;11.10;99.90
20815;DHT22;10568;48.176;16.316;2023-11-21T12:56:11;11.10;99.90
20815;DHT22;10568;48.176;16.316;2023-11-21T12:58:38;11.10;99.90
20815;DHT22;10568;48.176;16.316;2023-11-21T13:01:07;11.00;99.90
20815;DHT22;10568;48.176;16.316;2023-11-21T13:03:46;10.90;99.90
20815;DHT22;10568;48.176;16.316;2023-11-21T13:06:15;10.90;99.90
20815;DHT22;10568;48.176;16.316;2023-11-21T13:08:41;10.90;99.90
20815;DHT22;10568;48.176;16.316;2023-11-21T13:11:11;10.90;99.90
20815;DHT22;10568;48.176;16.316;2023-11-21T13:13:43;10.90;99.90
20815;DHT22;10568;48.176;16.316;2023-11-21T13:16:09;10.80;99.90
20815;DHT22;10568;48.176;16.316;2023-11-21T13:18:35;10.80;99.90
20815;DHT22;10568;48.176;16.316;2023-11-21T13:21:04;10.80;99.90
20815;DHT22;10568;48.176;16.316;2023-11-21T13:23:36;10.80;99.90
20815;DHT22;10568;48.176;16.316;2023-11-21T13:26:03;10.70;99.90
20815;DHT22;10568;48.176;16.316;2023-11-21T13:28:33;10.70;99.90
20815;DHT22;10568;48.176;16.316;2023-11-21T13:31:00;10.70;99.90
20815;DHT22;10568;48.176;16.316;2023-11-21T13:33:35;10.60;99.90
20815;DHT22;10568;48.176;16.316;2023-11-21T13:36:05;10.60;99.90
20815;DHT22;10568;48.176;16.316;2023-11-21T13:38:33;10.60;99.90
20815;DHT22;10568;48.176;16.316;2023-11-21T13:41:01;10.50;99.90
20815;DHT22;10568;48.176;16.316;2023-11-21T13:43:27;10.40;99.90
20815;DHT22;10568;48.176;16.316;2023-11-21T13:45:54;10.40;99.90
20815;DHT22;10568;48.176;16.316;2023-11-21T13:48:33;10.30;99.90
20815;DHT22;10568;48.176;16.316;2023-11-21T13:51:16;10.30;99.90
20815;DHT22;10568;48.176;16.316;2023-11-21T13:53:47;10.20;99.90
20815;DHT22;10568;48.176;16.316;2023-11-21T13:56:16;10.10;99.90
20815;DHT22;10568;48.176;16.316;2023-11-21T13:58:53;10.00;99.90
20815;DHT22;10568;48.176;16.316;2023-11-21T14:01:22;10.00;99.90
20815;DHT22;10568;48.176;16.316;2023-11-21T14:04:09;10.00;99.90
20815;DHT22;10568;48.176;16.316;2023-11-21T14:06:48;10.00;99.90
20815;DHT22;10568;48.176;16.316;2023-11-21T14:09:15;10.00;99.90
20815;DHT22;10568;48.176;16.316;2023-11-21T14:11:58;10.10;99.90
20815;DHT22;10568;48.176;16.316;2023-11-21T14:14:27;10.10;99.90
20815;DHT22;10568;48.176;16.316;2023-11-21T14:16:56;10.10;99.90
20815;DHT22;10568;48.176;16.316;2023-11-21T14:19:26;10.10;99.90
20815;DHT22;10568;48.176;16.316;2023-11-21T14:21:57;10.10;99.90
20815;DHT22;10568;48.176;16.316;2023-11-21T14:24:22;10.10;99.90
20815;DHT22;10568;48.176;16.316;2023-11-21T14:26:50;10.10;99.90
20815;DHT22;10568;48.176;16.316;2023-11-21T14:29:17;10.10;99.90
20815;DHT22;10568;48.176;16.316;2023-11-21T14:31:46;10.10;99.90
20815;DHT22;10568;48.176;16.316;2023-11-21T14:34:12;10.10;99.90
20815;DHT22;10568;48.176;16.316;2023-11-21T14:36:39;10.10;99.90
20815;DHT22;10568;48.176;16.316;2023-11-21T14:39:05;10.10;99.90
20815;DHT22;10568;48.176;16.316;2023-11-21T14:41:57;10.10;99.90
20815;DHT22;10568;48.176;16.316;2023-11-21T14:44:25;10.00;99.90
20815;DHT22;10568;48.176;16.316;2023-11-21T14:46:52;10.00;99.90
20815;DHT22;10568;48.176;16.316;2023-11-21T14:49:20;10.00;99.90
20815;DHT22;10568;48.176;16.316;2023-11-21T14:51:52;9.90;99.90
20815;DHT22;10568;48.176;16.316;2023-11-21T14:54:21;9.80;99.90
20815;DHT22;10568;48.176;16.316;2023-11-21T14:57:04;9.80;99.90
20815;DHT22;10568;48.176;16.316;2023-11-21T14:59:35;9.70;99.90
20815;DHT22;10568;48.176;16.316;2023-11-21T15:02:01;9.70;99.90
20815;DHT22;10568;48.176;16.316;2023-11-21T15:04:41;9.70;99.90
20815;DHT22;10568;48.176;16.316;2023-11-21T15:07:08;9.60;99.90
20815;DHT22;10568;48.176;16.316;2023-11-21T15:09:34;9.50;99.90
20815;DHT22;10568;48.176;16.316;2023-11-21T15:12:05;9.50;99.90
20815;DHT22;10568;48.176;16.316;2023-11-21T15:14:45;9.40;99.90
20815;DHT22;10568;48.176;16.316;2023-11-21T15:17:16;9.40;99.90
20815;DHT22;10568;48.176;16.316;2023-11-21T15:19:50;9.30;99.90
20815;DHT22;10568;48.176;16.316;2023-11-21T15:22:16;9.20;99.90
20815;DHT22;10568;48.176;16.316;2023-11-21T15:24:45;9.20;99.90
20815;DHT22;10568;48.176;16.316;2023-11-21T15:27:25;9.10;99.90
20815;DHT22;10568;48.176;16.316;2023-11-21T15:29:52;9.00;99.90
20815;DHT22;10568;48.176;16.316;2023-11-21T15:32:19;8.80;99.90
20815;DHT22;10568;48.176;16.316;2023-11-21T15:34:45;8.80;99.90
20815;DHT22;10568;48.176;16.316;2023-11-21T15:37:12;8.70;99.90
20815;DHT22;10568;48.176;16.316;2023-11-21T15:39:39;8.60;99.90
20815;DHT22;10568;48.176;16.316;2023-11-21T15:42:05;8.50;99.90
20815;DHT22;10568;48.176;16.316;2023-11-21T15:44:33;8.40;99.90
20815;DHT22;10568;48.176;16.316;2023-11-21T15:46:59;8.30;99.90
20815;DHT22;10568;48.176;16.316;2023-11-21T15:49:25;8.30;99.90